Neutral, Kansas
Current Conditions -  °F | °C
As of 5:15 AM on Thursday 18 Dec 2014 (Local Time) from KPTS Reporting Station
Light Snow Light Snow  
Wind Chill: 29°   Ceiling: 400
Heat Index: 34°   Visibility: 4mi
Dew Point: 34°   Wind: 5mph
Humidity: 100%   Direction: 70°ENE
Pressure: 30.16"   Gusts: NA
Location:  37.1637°N, 94.898°W
Report Text: KPTS 181115Z AUTO 07004KT 4SM -SN BKN004 OVC007 01/01 A3016 RMK AO2 T00090010
Loading
Personal Weather Stations






























Interactive Weather Map New forecast layout! Learn more

10-Day Weather Forecast

Advertisements
Track Severe Weather on mobile